St Lucie County International Airport
KFPR : now visible

Airfield :











YOU CAN JOIN US ON...

 
LOGIN :

Register | Disclaimer

   EN    FR    IT 

 









Legend :    VFR   Marginal VFR   IFR   Intensive IFR   Very Intensive IFR
Visi :
Ceiling :
>= 8 km
>= 3000ft
5 to 8 km
1000 to 3000 ft
1500m to 5 km
500 to 1000 ft
800 to 1500m
200 to 500 ft
< 800m
< 200 ft
Symbols :   Thunderstorms  Fog  Heavy snow  Heavy precipitations  Wind > 20 kt






- Airport Elevation : 24 ft
- IATA code : FPR


KFPR - St Lucie County International

CURRENT METAR :
  • 121657Z VRB05KT 10SM SCT045 SCT100 33/19 A3006 RMK AO2 T03280189

EXPIRED METARs :
  • 121653Z 10SM SCT045 32/19 A3006 RMK AO2 SLP178 T03220194
  • 121553Z 22008KT 10SM SCT036 31/21 A3008 RMK AO2 SLP185 T03110206
  • 121453Z 24006KT 10SM SCT030 31/21 A3008 RMK AO2 SLP186 T03060206 53005

TAF KFPR
Valid from the 12 at 18:00 until the 13 at 18:00 UTC


121732Z 1218/1318 13009KT P6SM VCTS SCT050CB BKN100
TEMPO 1220/1223 3SM TSRA BKN030CB
FM130000 21005KT P6SM SCT030 BKN120
FM131400 34010KT P6SM VCSH SCT020 BKN120
KZMA FIR / North America



MET'MAP, your aeronautical weather chart ! - Copyright ORBIFLY December 2007 - Disclaimer

ORBIFLY MET'MAP TEAM :

Programming & Development : Alexandra Zaïnal
Concept & original design : Baudouin d'Aumeries
Assistance for programming : Marc-Olivier Méhu
Technical & hardware support : Manuel Goepfert

Contact : metmap@orbifly.com




SOURCES & CREDITS :

   NOAA       Earth
Advisory